createdAt,value
2022-09-28T00:00:18.381Z,97233.03
2022-09-28T00:02:47.007Z,97228.28
2022-09-28T00:05:16.050Z,97226.69
2022-09-28T00:07:44.881Z,97230.13
2022-09-28T00:10:13.452Z,97228.31
2022-09-28T00:12:43.455Z,97224.81
2022-09-28T00:15:12.587Z,97219.47
2022-09-28T00:17:41.274Z,97211.75
2022-09-28T00:20:11.457Z,97217.84
2022-09-28T00:22:40.282Z,97208.00
2022-09-28T00:25:10.461Z,97208.22
2022-09-28T00:27:39.083Z,97207.41
2022-09-28T00:30:11.377Z,97209.84
2022-09-28T00:32:39.987Z,97213.31
2022-09-28T00:35:09.742Z,97210.41
2022-09-28T00:37:38.601Z,97204.03
2022-09-28T00:40:08.684Z,97208.56
2022-09-28T00:42:37.328Z,97204.88
2022-09-28T00:45:10.181Z,97202.97
2022-09-28T00:47:51.618Z,97196.59
2022-09-28T00:50:28.171Z,97197.91
2022-09-28T00:53:03.464Z,97193.59
2022-09-28T00:55:40.786Z,97189.06
2022-09-28T00:58:14.269Z,97188.75
2022-09-28T01:00:44.501Z,97185.31
2022-09-28T01:03:14.704Z,97186.34
2022-09-28T01:05:44.646Z,97180.50
2022-09-28T01:08:15.626Z,97182.88
2022-09-28T01:10:44.731Z,97185.03
2022-09-28T01:13:15.999Z,97180.75
2022-09-28T01:15:59.566Z,97178.09
2022-09-28T01:18:42.075Z,97180.19
2022-09-28T01:21:18.009Z,97178.31
2022-09-28T01:24:15.477Z,97175.66
2022-09-28T01:27:06.253Z,97171.41
2022-09-28T01:29:49.311Z,97171.94
2022-09-28T01:32:33.823Z,97172.22
2022-09-28T01:35:09.281Z,97168.75
2022-09-28T01:37:48.189Z,97163.13
2022-09-28T01:40:19.816Z,97151.97
2022-09-28T01:42:58.215Z,97155.72
2022-09-28T01:45:34.401Z,97161.59
2022-09-28T01:48:08.466Z,97158.38
2022-09-28T01:50:42.316Z,97153.84
2022-09-28T01:53:21.798Z,97156.25
2022-09-28T01:55:56.113Z,97151.19
2022-09-28T01:58:33.926Z,97155.16
2022-09-28T02:01:11.795Z,97155.69
2022-09-28T02:03:49.869Z,97154.09
2022-09-28T02:06:24.196Z,97152.22
2022-09-28T02:09:15.114Z,97142.09
2022-09-28T02:11:54.016Z,97148.78
2022-09-28T02:14:27.374Z,97145.59
2022-09-28T02:16:58.293Z,97148.78
2022-09-28T02:19:32.866Z,97143.47
2022-09-28T02:22:14.606Z,97145.06
2022-09-28T02:24:55.142Z,97140.25
2022-09-28T02:27:37.668Z,97144.22
2022-09-28T02:30:09.982Z,97145.28
2022-09-28T02:32:46.233Z,97136.22
2022-09-28T02:35:19.126Z,97134.38
2022-09-28T02:37:48.771Z,97130.41
2022-09-28T02:40:21.978Z,97120.22
2022-09-28T02:43:10.582Z,97132.25
2022-09-28T02:46:13.647Z,97131.13
2022-09-28T02:49:21.403Z,97123.69
2022-09-28T02:52:26.754Z,97117.81
2022-09-28T02:55:21.402Z,97123.13
2022-09-28T02:58:12.390Z,97112.97
2022-09-28T03:00:52.741Z,97102.84
2022-09-28T03:03:34.154Z,97109.75
2022-09-28T03:06:13.040Z,97106.81
2022-09-28T03:08:56.672Z,97100.16
2022-09-28T03:11:34.760Z,97093.75
2022-09-28T03:14:05.875Z,97105.47
2022-09-28T03:16:49.505Z,97097.97
2022-09-28T03:19:23.945Z,97099.84
2022-09-28T03:21:54.409Z,97103.84
2022-09-28T03:24:23.037Z,97101.16
2022-09-28T03:26:52.053Z,97101.66
2022-09-28T03:29:21.113Z,97103.25
2022-09-28T03:31:56.505Z,97105.38
2022-09-28T03:34:25.258Z,97104.88
2022-09-28T03:36:54.974Z,97100.09
2022-09-28T03:39:23.657Z,97111.31
2022-09-28T03:41:54.310Z,97112.13
2022-09-28T03:44:27.592Z,97111.59
2022-09-28T03:47:08.348Z,97110.28
2022-09-28T03:49:39.426Z,97108.16
2022-09-28T03:52:08.140Z,97108.44
2022-09-28T03:54:37.293Z,97103.38
2022-09-28T03:57:08.796Z,97101.28
2022-09-28T03:59:38.008Z,97093.25
2022-09-28T04:02:10.114Z,97088.75
2022-09-28T04:04:38.856Z,97079.44
2022-09-28T04:07:11.123Z,97062.63
2022-09-28T04:09:39.822Z,97052.22
2022-09-28T04:12:09.099Z,97063.41
2022-09-28T04:14:37.872Z,97060.22
2022-09-28T04:17:14.087Z,97067.41
2022-09-28T04:19:44.982Z,97066.59
2022-09-28T04:22:37.713Z,97051.16
2022-09-28T04:25:12.905Z,97062.88
2022-09-28T04:28:04.533Z,97058.63
2022-09-28T04:30:33.540Z,97047.41
2022-09-28T04:33:06.650Z,97037.81
2022-09-28T04:35:35.299Z,97037.81
2022-09-28T04:38:09.990Z,97029.53
2022-09-28T04:40:39.895Z,97018.06
2022-09-28T04:43:10.948Z,97017.00
2022-09-28T04:45:39.643Z,97015.13
2022-09-28T04:48:13.993Z,97012.75
2022-09-28T04:51:02.114Z,97001.28
2022-09-28T04:53:31.961Z,96999.16
2022-09-28T04:56:03.331Z,97007.94
2022-09-28T04:58:32.985Z,97007.41
2022-09-28T05:01:05.347Z,97008.47
2022-09-28T05:04:10.649Z,96994.34
2022-09-28T05:06:59.515Z,96992.47
2022-09-28T05:09:29.602Z,96988.22
2022-09-28T05:11:58.389Z,96992.75
2022-09-28T05:14:27.555Z,96994.09
2022-09-28T05:16:56.620Z,96989.81
2022-09-28T05:19:30.335Z,96991.19
2022-09-28T05:22:06.255Z,96993.56
2022-09-28T05:24:41.560Z,96995.16
2022-09-28T05:27:10.940Z,96989.81
2022-09-28T05:29:39.739Z,96976.25
2022-09-28T05:32:26.618Z,96978.66
2022-09-28T05:35:15.399Z,96974.41
2022-09-28T05:37:48.125Z,96971.47
2022-09-28T05:40:17.746Z,96969.31
2022-09-28T05:42:46.405Z,96964.25
2022-09-28T05:45:15.319Z,96959.19
2022-09-28T05:47:47.012Z,96965.31
2022-09-28T05:50:21.183Z,96956.25
2022-09-28T05:53:00.215Z,96957.59
2022-09-28T05:55:29.281Z,96938.13
2022-09-28T05:58:00.716Z,96937.34
2022-09-28T06:00:30.192Z,96926.91
2022-09-28T06:03:03.421Z,96919.47
2022-09-28T06:05:39.413Z,96912.00
2022-09-28T06:08:10.824Z,96913.06
2022-09-28T06:10:43.919Z,96910.91
2022-09-28T06:13:12.910Z,96906.16
2022-09-28T06:15:44.958Z,96901.31
2022-09-28T06:18:16.055Z,96893.31
2022-09-28T06:21:05.996Z,96898.91
2022-09-28T06:23:46.859Z,96894.91
2022-09-28T06:26:18.494Z,96906.88
2022-09-28T06:28:47.700Z,96894.63
2022-09-28T06:31:16.443Z,96896.22
2022-09-28T06:33:50.309Z,96906.06
2022-09-28T06:36:22.279Z,96904.47
2022-09-28T06:38:51.694Z,96891.63
2022-09-28T06:41:20.362Z,96887.66
2022-09-28T06:43:49.740Z,96890.56
2022-09-28T06:46:39.317Z,96896.16
2022-09-28T06:49:30.327Z,96890.03
2022-09-28T06:52:18.821Z,96896.41
2022-09-28T06:55:10.895Z,96898.00
2022-09-28T06:57:48.117Z,96900.13
2022-09-28T07:00:17.787Z,96899.59
2022-09-28T07:02:48.507Z,96895.28
2022-09-28T07:05:38.230Z,96900.09
2022-09-28T07:08:26.615Z,96899.81
2022-09-28T07:11:27.035Z,96904.34
2022-09-28T07:14:46.515Z,96902.19
2022-09-28T07:17:17.132Z,96905.94
2022-09-28T07:19:45.801Z,96922.50
2022-09-28T07:22:18.586Z,96924.88
2022-09-28T07:24:50.180Z,96920.88
2022-09-28T07:27:38.283Z,96914.44
2022-09-28T07:30:18.616Z,96908.84
2022-09-28T07:33:14.651Z,96907.50
2022-09-28T07:35:57.063Z,96902.41
2022-09-28T07:38:29.891Z,96899.47
2022-09-28T07:41:11.472Z,96903.72
2022-09-28T07:43:45.142Z,96912.00
2022-09-28T07:46:13.865Z,96915.97
2022-09-28T07:48:51.838Z,96906.34
2022-09-28T07:51:35.907Z,96906.59
2022-09-28T07:54:31.745Z,96900.44
2022-09-28T07:57:33.286Z,96908.69
2022-09-28T08:00:34.524Z,96916.94
2022-09-28T08:03:04.853Z,96925.22
2022-09-28T08:05:35.953Z,96922.25
2022-09-28T08:08:04.893Z,96917.97
2022-09-28T08:10:35.186Z,96916.34
2022-09-28T08:13:23.559Z,96917.66
2022-09-28T08:16:19.126Z,96917.91
2022-09-28T08:19:01.951Z,96916.28
2022-09-28T08:21:48.298Z,96921.09
2022-09-28T08:24:19.307Z,96923.25
2022-09-28T08:26:49.552Z,96921.88
2022-09-28T08:29:20.971Z,96921.38
2022-09-28T08:31:52.247Z,96929.13
2022-09-28T08:34:37.361Z,96932.88
2022-09-28T08:37:24.853Z,96931.00
2022-09-28T08:40:20.371Z,96929.13
2022-09-28T08:43:40.980Z,96930.72
2022-09-28T08:46:38.720Z,96920.31
2022-09-28T08:49:36.558Z,96929.94
2022-09-28T08:52:31.314Z,96931.28
2022-09-28T08:55:40.925Z,96936.06
2022-09-28T08:58:15.453Z,96932.31
2022-09-28T09:00:49.453Z,96931.78
2022-09-28T09:03:29.007Z,96927.53
2022-09-28T09:06:32.170Z,96932.56
2022-09-28T09:09:23.649Z,96926.16
2022-09-28T09:12:05.010Z,96920.31
2022-09-28T09:15:18.461Z,96911.50
2022-09-28T09:18:05.148Z,96910.94
2022-09-28T09:20:53.230Z,96908.25
2022-09-28T09:23:39.521Z,96901.28
2022-09-28T09:26:23.505Z,96902.84
2022-09-28T09:29:30.497Z,96899.06
2022-09-28T09:32:24.821Z,96897.97
2022-09-28T09:35:26.143Z,96889.16
2022-09-28T09:39:00.320Z,96888.53
2022-09-28T09:42:27.050Z,96877.03
2022-09-28T09:45:55.667Z,96891.97
2022-09-28T09:49:09.496Z,96893.56
2022-09-28T09:51:49.000Z,96895.78
2022-09-28T09:54:28.194Z,96893.19
2022-09-28T09:57:07.838Z,96888.88
2022-09-28T09:59:58.247Z,96885.63
2022-09-28T10:02:47.087Z,96875.91
2022-09-28T10:05:33.655Z,96879.00
2022-09-28T10:08:12.565Z,96883.25
2022-09-28T10:10:52.815Z,96888.53
2022-09-28T10:13:23.348Z,96868.22
2022-09-28T10:15:56.451Z,96856.75
2022-09-28T10:18:49.943Z,96855.00
2022-09-28T10:21:40.736Z,96866.28
2022-09-28T10:24:35.608Z,96878.06
2022-09-28T10:27:16.431Z,96876.38
2022-09-28T10:29:53.735Z,96874.22
2022-09-28T10:32:25.838Z,96875.19
2022-09-28T10:35:26.224Z,96865.50
2022-09-28T10:38:05.121Z,96856.59
2022-09-28T10:41:01.165Z,96866.94
2022-09-28T10:44:06.120Z,96862.03
2022-09-28T10:46:59.923Z,96862.53
2022-09-28T10:49:45.890Z,96860.84
2022-09-28T10:52:39.805Z,96863.03
2022-09-28T10:55:30.750Z,96865.69
2022-09-28T10:57:59.712Z,96872.09
2022-09-28T11:00:44.353Z,96874.22
2022-09-28T11:03:29.063Z,96882.91
2022-09-28T11:06:06.741Z,96887.81
2022-09-28T11:08:40.810Z,96884.63
2022-09-28T11:11:14.350Z,96880.91
2022-09-28T11:13:49.160Z,96879.22
2022-09-28T11:16:29.896Z,96881.06
2022-09-28T11:19:05.231Z,96881.28
2022-09-28T11:21:46.124Z,96881.44
2022-09-28T11:24:26.127Z,96882.69
2022-09-28T11:27:00.405Z,96885.94
2022-09-28T11:29:39.961Z,96887.44
2022-09-28T11:32:43.752Z,96889.56
2022-09-28T11:35:26.647Z,96883.69
2022-09-28T11:38:17.321Z,96887.38
2022-09-28T11:41:26.209Z,96887.88
2022-09-28T11:44:22.643Z,96903.91
2022-09-28T11:47:26.825Z,96899.94
2022-09-28T11:50:06.601Z,96896.72
2022-09-28T11:52:48.375Z,96902.44
2022-09-28T11:55:29.086Z,96896.59
2022-09-28T11:58:10.235Z,96903.41
2022-09-28T12:00:46.561Z,96907.59
2022-09-28T12:03:22.866Z,96911.25
2022-09-28T12:06:01.013Z,96907.53
2022-09-28T12:08:37.433Z,96910.97
2022-09-28T12:11:14.221Z,96914.09
2022-09-28T12:14:06.818Z,96905.56
2022-09-28T12:17:04.986Z,96910.03
2022-09-28T12:19:39.998Z,96921.72
2022-09-28T12:22:24.217Z,96926.13
2022-09-28T12:24:59.020Z,96925.34
2022-09-28T12:27:38.939Z,96918.88
2022-09-28T12:30:20.924Z,96925.41
2022-09-28T12:32:57.381Z,96927.22
2022-09-28T12:35:41.958Z,96930.41
2022-09-28T12:38:40.107Z,96946.34
2022-09-28T12:41:24.992Z,96931.19
2022-09-28T12:44:17.388Z,96943.66
2022-09-28T12:47:25.839Z,96941.66
2022-09-28T12:50:38.194Z,96949.75
2022-09-28T12:53:31.221Z,96947.22
2022-09-28T12:56:06.408Z,96954.06
2022-09-28T12:59:01.116Z,96951.75
2022-09-28T13:01:55.437Z,96952.25
2022-09-28T13:05:03.611Z,96963.53
2022-09-28T13:07:47.668Z,96965.34
2022-09-28T13:10:32.540Z,96963.13
2022-09-28T13:13:31.684Z,96968.44
2022-09-28T13:16:17.609Z,96965.66
2022-09-28T13:19:00.165Z,96967.50
2022-09-28T13:21:44.184Z,96968.34
2022-09-28T13:24:33.511Z,96968.28
2022-09-28T13:27:15.177Z,96979.72
2022-09-28T13:29:50.588Z,96981.31
2022-09-28T13:32:20.919Z,96980.47
2022-09-28T13:34:52.338Z,96987.59
2022-09-28T13:37:25.816Z,96989.69
2022-09-28T13:40:01.121Z,96986.69
2022-09-28T13:43:20.840Z,96986.00
2022-09-28T13:46:04.881Z,96994.19
2022-09-28T13:48:52.984Z,96995.75
2022-09-28T13:51:39.168Z,97003.38
2022-09-28T13:54:29.527Z,97004.66
2022-09-28T13:57:18.164Z,97007.16
2022-09-28T14:00:03.722Z,97015.56
2022-09-28T14:02:49.752Z,97022.44
2022-09-28T14:05:54.555Z,97019.75
2022-09-28T14:08:38.475Z,97025.63
2022-09-28T14:11:56.314Z,97029.22
2022-09-28T14:14:48.570Z,97032.47
2022-09-28T14:18:02.170Z,97035.56
2022-09-28T14:20:32.753Z,97043.91
2022-09-28T14:23:59.004Z,97045.50
2022-09-28T14:27:04.432Z,97054.63
2022-09-28T14:29:38.282Z,97054.09
2022-09-28T14:32:24.624Z,97062.31
2022-09-28T14:35:07.139Z,97057.66
2022-09-28T14:37:58.472Z,97058.53
2022-09-28T14:40:50.258Z,97060.63
2022-09-28T14:43:35.903Z,97058.94
2022-09-28T14:46:37.917Z,97062.81
2022-09-28T14:49:37.577Z,97068.75
2022-09-28T14:52:14.776Z,97068.91
2022-09-28T14:54:54.998Z,97066.03
2022-09-28T14:57:36.174Z,97065.00
2022-09-28T15:00:18.659Z,97071.28
2022-09-28T15:02:52.807Z,97069.19
2022-09-28T15:05:28.984Z,97068.16
2022-09-28T15:07:59.831Z,97074.13
2022-09-28T15:10:34.234Z,97073.72
2022-09-28T15:13:16.908Z,97079.84
2022-09-28T15:15:51.472Z,97079.06
2022-09-28T15:19:15.762Z,97090.31
2022-09-28T15:21:47.630Z,97090.31
2022-09-28T15:24:30.724Z,97085.47
2022-09-28T15:27:00.219Z,97086.50
2022-09-28T15:29:31.785Z,97096.16
2022-09-28T15:32:02.589Z,97096.09
2022-09-28T15:34:51.596Z,97095.56
2022-09-28T15:37:24.963Z,97097.66
2022-09-28T15:39:57.921Z,97104.09
2022-09-28T15:42:27.012Z,97105.97
2022-09-28T15:45:22.265Z,97110.00
2022-09-28T15:47:56.175Z,97114.25
2022-09-28T15:50:28.811Z,97117.44
2022-09-28T15:53:01.973Z,97116.94
2022-09-28T15:55:34.739Z,97118.03
2022-09-28T15:58:17.210Z,97118.53
2022-09-28T16:00:48.064Z,97122.28
2022-09-28T16:03:31.217Z,97126.59
2022-09-28T16:06:11.524Z,97138.16
2022-09-28T16:08:43.368Z,97137.06
2022-09-28T16:11:23.971Z,97137.88
2022-09-28T16:14:06.824Z,97146.97
2022-09-28T16:16:43.318Z,97148.59
2022-09-28T16:19:26.143Z,97153.13
2022-09-28T16:22:02.512Z,97153.13
2022-09-28T16:24:36.621Z,97149.16
2022-09-28T16:27:10.202Z,97166.28
2022-09-28T16:29:42.071Z,97164.16
2022-09-28T16:32:50.390Z,97165.78
2022-09-28T16:35:28.723Z,97166.63
2022-09-28T16:38:11.197Z,97174.97
2022-09-28T16:40:46.326Z,97173.38
2022-09-28T16:43:27.100Z,97180.06
2022-09-28T16:45:58.167Z,97185.44
2022-09-28T16:48:30.445Z,97184.13
2022-09-28T16:50:59.827Z,97186.84
2022-09-28T16:53:42.622Z,97192.72
2022-09-28T16:56:13.419Z,97198.38
2022-09-28T16:58:44.380Z,97200.50
2022-09-28T17:01:14.957Z,97196.50
2022-09-28T17:03:46.963Z,97194.34
2022-09-28T17:06:16.919Z,97202.91
2022-09-28T17:08:50.507Z,97199.13
2022-09-28T17:11:24.552Z,97205.28
2022-09-28T17:13:59.092Z,97202.09
2022-09-28T17:17:02.291Z,97212.00
2022-09-28T17:19:25.803Z,97208.25
2022-09-28T17:21:54.861Z,97213.09
2022-09-28T17:24:23.555Z,97210.41
2022-09-28T17:26:53.508Z,97219.25
2022-09-28T17:29:24.205Z,97229.69
2022-09-28T17:31:53.055Z,97224.34
2022-09-28T17:34:22.551Z,97226.50
2022-09-28T17:36:52.903Z,97232.94
2022-09-28T17:39:21.820Z,97231.34
2022-09-28T17:41:51.139Z,97232.72
2022-09-28T17:44:20.578Z,97243.16
2022-09-28T17:46:54.714Z,97237.59
2022-09-28T17:49:24.966Z,97237.31
2022-09-28T17:51:54.415Z,97238.94
2022-09-28T17:54:26.102Z,97251.56
2022-09-28T17:57:00.085Z,97250.78
2022-09-28T17:59:32.396Z,97249.72
2022-09-28T18:02:03.012Z,97241.72
2022-09-28T18:04:51.348Z,97256.69
2022-09-28T18:07:21.044Z,97253.47
2022-09-28T18:10:02.421Z,97250.28
2022-09-28T18:12:31.623Z,97256.16
2022-09-28T18:15:01.211Z,97258.31
2022-09-28T18:17:31.812Z,97260.47
2022-09-28T18:20:00.608Z,97255.66
2022-09-28T18:22:30.205Z,97258.84
2022-09-28T18:25:00.111Z,97268.47
2022-09-28T18:27:31.470Z,97264.22
2022-09-28T18:30:00.899Z,97274.31
2022-09-28T18:32:31.610Z,97270.88
2022-09-28T18:35:00.927Z,97274.34
2022-09-28T18:37:30.187Z,97277.56
2022-09-28T18:39:59.413Z,97280.75
2022-09-28T18:42:28.205Z,97279.41
2022-09-28T18:44:57.119Z,97283.94
2022-09-28T18:47:28.255Z,97279.66
2022-09-28T18:49:59.012Z,97277.53
2022-09-28T18:52:28.576Z,97286.06
2022-09-28T18:54:57.533Z,97284.16
2022-09-28T18:57:29.029Z,97291.91
2022-09-28T18:59:58.461Z,97289.75
2022-09-28T19:02:27.658Z,97288.69
2022-09-28T19:04:57.853Z,97285.19
2022-09-28T19:07:27.300Z,97290.00
2022-09-28T19:09:57.321Z,97293.47
2022-09-28T19:12:26.467Z,97289.72
2022-09-28T19:14:55.209Z,97291.84
2022-09-28T19:17:24.864Z,97293.13
2022-09-28T19:19:53.717Z,97284.63
2022-09-28T19:22:23.856Z,97291.25
2022-09-28T19:24:54.408Z,97293.88
2022-09-28T19:27:23.625Z,97288.53
2022-09-28T19:29:52.895Z,97293.88
2022-09-28T19:32:21.614Z,97286.91
2022-09-28T19:34:50.339Z,97290.63
2022-09-28T19:37:35.720Z,97283.69
2022-09-28T19:40:05.915Z,97294.91
2022-09-28T19:42:36.413Z,97292.19
2022-09-28T19:45:05.775Z,97285.53
2022-09-28T19:47:34.454Z,97288.69
2022-09-28T19:50:06.535Z,97290.25
2022-09-28T19:52:37.048Z,97294.22
2022-09-28T19:55:06.780Z,97293.13
2022-09-28T19:57:36.231Z,97300.81
2022-09-28T20:00:06.290Z,97292.25
2022-09-28T20:02:35.632Z,97302.69
2022-09-28T20:05:04.627Z,97299.97
2022-09-28T20:07:34.872Z,97302.66
2022-09-28T20:10:05.458Z,97299.44
2022-09-28T20:12:34.733Z,97303.19
2022-09-28T20:15:10.863Z,97311.09
2022-09-28T20:17:39.903Z,97318.84
2022-09-28T20:20:09.557Z,97320.75
2022-09-28T20:22:40.341Z,97318.81
2022-09-28T20:25:11.173Z,97322.72
2022-09-28T20:27:39.957Z,97329.88
2022-09-28T20:30:11.317Z,97333.84
2022-09-28T20:32:40.329Z,97341.31
2022-09-28T20:35:10.218Z,97340.78
2022-09-28T20:37:38.866Z,97340.78
2022-09-28T20:40:11.080Z,97341.31
2022-09-28T20:42:42.147Z,97341.81
2022-09-28T20:45:11.213Z,97347.34
2022-09-28T20:47:40.507Z,97348.66
2022-09-28T20:50:11.645Z,97350.25
2022-09-28T20:52:40.316Z,97345.53
2022-09-28T20:55:11.057Z,97351.16
2022-09-28T20:57:39.631Z,97358.47
2022-09-28T21:00:10.801Z,97356.53
2022-09-28T21:02:39.494Z,97362.41
2022-09-28T21:05:09.397Z,97362.97
2022-09-28T21:07:42.354Z,97368.47
2022-09-28T21:10:13.756Z,97369.66
2022-09-28T21:12:42.638Z,97373.13
2022-09-28T21:15:12.407Z,97379.72
2022-09-28T21:17:41.060Z,97382.31
2022-09-28T21:20:11.184Z,97380.00
2022-09-28T21:22:39.878Z,97378.38
2022-09-28T21:25:09.464Z,97384.72
2022-09-28T21:27:39.473Z,97381.97
2022-09-28T21:30:10.644Z,97375.53
2022-09-28T21:32:39.218Z,97379.19
2022-09-28T21:35:09.284Z,97394.44
2022-09-28T21:37:38.054Z,97384.31
2022-09-28T21:40:09.852Z,97387.84
2022-09-28T21:42:40.040Z,97399.44
2022-09-28T21:45:10.249Z,97400.47
2022-09-28T21:47:39.905Z,97391.44
2022-09-28T21:50:09.891Z,97392.94
2022-09-28T21:52:39.554Z,97393.94
2022-09-28T21:55:10.400Z,97391.84
2022-09-28T21:57:40.495Z,97391.50
2022-09-28T22:00:12.742Z,97392.81
2022-09-28T22:02:42.044Z,97389.63
2022-09-28T22:05:12.724Z,97388.56
2022-09-28T22:07:42.848Z,97392.22
2022-09-28T22:10:15.478Z,97399.69
2022-09-28T22:12:45.561Z,97391.69
2022-09-28T22:15:14.475Z,97393.81
2022-09-28T22:17:43.119Z,97399.00
2022-09-28T22:20:11.935Z,97392.09
2022-09-28T22:22:40.565Z,97405.56
2022-09-28T22:25:11.647Z,97405.03
2022-09-28T22:27:40.380Z,97409.50
2022-09-28T22:30:12.118Z,97408.41
2022-09-28T22:32:40.814Z,97412.59
2022-09-28T22:35:12.114Z,97406.81
2022-09-28T22:38:04.805Z,97403.63
2022-09-28T22:41:25.075Z,97411.88
2022-09-28T22:44:22.399Z,97403.09
2022-09-28T22:46:52.599Z,97406.00
2022-09-28T22:49:21.672Z,97415.19
2022-09-28T22:51:50.375Z,97414.13
2022-09-28T22:54:19.168Z,97411.47
2022-09-28T22:56:47.954Z,97416.97
2022-09-28T22:59:16.937Z,97421.56
2022-09-28T23:01:45.864Z,97427.59
2022-09-28T23:04:16.169Z,97417.78
2022-09-28T23:06:44.816Z,97420.84
2022-09-28T23:09:13.419Z,97427.88
2022-09-28T23:11:42.155Z,97430.88
2022-09-28T23:14:13.657Z,97437.47
2022-09-28T23:16:42.344Z,97441.00
2022-09-28T23:19:11.159Z,97436.34
2022-09-28T23:21:41.888Z,97439.72
2022-09-28T23:24:12.410Z,97433.84
2022-09-28T23:26:41.049Z,97433.78
2022-09-28T23:29:13.009Z,97433.00
2022-09-28T23:31:42.366Z,97432.97
2022-09-28T23:34:12.212Z,97438.34
2022-09-28T23:36:42.469Z,97431.81
2022-09-28T23:39:12.170Z,97436.72
2022-09-28T23:41:41.037Z,97436.09
2022-09-28T23:44:09.632Z,97432.72
2022-09-28T23:46:38.857Z,97445.69
2022-09-28T23:49:08.095Z,97433.59
2022-09-28T23:51:36.722Z,97442.88
2022-09-28T23:54:07.133Z,97452.75
2022-09-28T23:56:36.028Z,97453.31
2022-09-28T23:59:05.357Z,97438.09
